Latest Coastal Weather Observations for Lucinda

IDQ60701

Issued at 6:15 pm EST Sunday 20 April 2014 (issued every 10 minutes, with the page automatically refreshed every 10 minutes)

About coastal observations | Map of coastal stations | Coastal observations for QLD | Marine services | Other Formats
Station Details ID: 032141 Name: LUCINDA POINT Lat: -18.52 Lon: 146.39 Height: 10.0 m
Data from the previous 72 hours. | See also: Recent months for locations in Queensland
Date/Time
EST
Temp

°C
Wind Pressure Rain
since 9am
mm
Weather Cloud Vis
km
Sea
Height
m
Swell
Dir
 
Speed
knots
Gust
knots
hPa Trend Height
m
Period
s
Dir
20/06:00pm 26.0 SSE 6 10 1014.7 - 0.0 - - - - - - -
20/05:30pm 26.4 SE 7 12 1014.7 - 0.0 - - - - - - -
20/05:00pm 26.6 ESE 8 12 1014.4 - 0.0 - - - - - - -
20/04:30pm 26.5 SE 8 12 1014.1 - 0.0 - - - - - - -
20/04:00pm 26.9 SE 7 11 1013.8 - 0.0 - - - - - - -
20/03:30pm 27.0 SE 7 12 1013.6 - 0.0 - - - - - - -
20/03:00pm 27.2 SE 6 9 1013.5 - 0.0 - - - - - - -
20/02:30pm 27.3 SSE 6 10 1013.6 - 0.0 - - - - - - -
20/02:00pm 27.1 SE 7 11 1013.7 - 0.0 - - - - - - -
20/01:30pm 27.5 SSE 5 9 1014.0 - 0.0 - - - - - - -
20/01:00pm 27.2 S 5 8 1014.4 - 0.0 - - - - - - -
20/12:30pm 27.2 SSE 6 10 1014.8 - 0.0 - - - - - - -
20/12:00pm 27.3 SE 7 10 1015.2 - 0.0 - - - - - - -
20/11:30am 27.3 SE 6 11 1015.6 - 0.0 - - - - - - -
20/11:00am 27.6 ESE 7 10 1015.9 - 0.0 - - - - - - -
20/10:30am 26.9 SE 7 10 1016.1 - 0.0 - - - - - - -
20/10:00am 27.3 SE 5 9 1016.1 - 0.0 - - - - - - -
20/09:30am 24.1 SW 7 8 1016.2 - 0.0 - - - - - - -
20/09:00am 22.9 SW 7 8 1015.9 - 0.0 - - - - - - -
20/08:30am 22.6 WSW 7 9 1015.8 - 0.0 - - - - - - -
20/08:00am 22.3 WSW 8 9 1015.4 - 0.0 - - - - - - -
20/07:30am 22.4 SW 9 10 1015.2 - 0.0 - - - - - - -
20/07:00am 22.2 SW 7 9 1014.8 - 0.0 - - - - - - -
20/06:30am 22.3 WSW 8 9 1014.6 - 0.0 - - - - - - -
20/06:00am 22.4 WSW 8 9 1014.1 - 0.0 - - - - - - -
20/05:30am 22.4 WSW 7 8 1014.0 - 0.0 - - - - - - -
20/05:00am 22.6 WSW 6 8 1013.7 - 0.0 - - - - - - -
20/04:30am 22.6 WSW 7 8 1013.6 - 0.0 - - - - - - -
20/04:00am 22.7 WSW 7 8 1013.5 - 0.0 - - - - - - -
20/03:30am 22.8 SW 5 7 1013.6 - 0.0 - - - - - - -
20/03:00am 25.1 S 4 7 1013.5 - 0.0 - - - - - - -
20/02:30am 25.5 E 3 6 1013.6 - 0.0 - - - - - - -
20/02:00am 25.6 SE 5 9 1013.7 - 0.0 - - - - - - -
20/01:30am 25.7 SE 7 10 1013.8 - 0.0 - - - - - - -
20/01:00am 25.8 ESE 6 11 1014.1 - 0.0 - - - - - - -
20/12:30am 25.8 ESE 7 11 1014.6 - 0.0 - - - - - - -
20/12:00am 25.8 ESE 6 11 1014.7 - 0.0 - - - - - - -
 
Date/Time
EST
Temp

°C
Wind Pressure Rain
since 9am
mm
Weather Cloud Vis
km
Sea
Height
m
Swell
Dir
 
Speed
knots
Gust
knots
hPa Trend Height
m
Period
s
Dir
19/11:30pm 25.9 E 8 12 1015.0 - 0.0 - - - - - - -
19/11:00pm 25.9 ESE 9 11 1015.1 - 0.0 - - - - - - -
19/10:30pm 26.0 ESE 8 11 1015.2 - 0.0 - - - - - - -
19/10:00pm 26.0 ESE 8 11 1015.3 - 0.0 - - - - - - -
19/09:30pm 26.1 E 8 11 1015.2 - 0.0 - - - - - - -
19/09:00pm 26.1 E 9 11 1015.1 - 0.0 - - - - - - -
19/08:30pm 26.1 E 8 11 1015.0 - 0.0 - - - - - - -
19/08:00pm 26.1 ENE 8 11 1014.8 - 0.0 - - - - - - -
19/07:30pm 26.2 ENE 9 11 1014.5 - 0.0 - - - - - - -
19/07:00pm 26.1 E 7 10 1014.2 - 0.0 - - - - - - -
19/06:30pm 26.2 ESE 8 11 1014.0 - 0.0 - - - - - - -
19/06:00pm 26.3 E 8 11 1013.7 - 0.0 - - - - - - -
19/05:30pm 26.4 ESE 7 9 1013.6 - 0.0 - - - - - - -
19/05:00pm 26.8 E 6 8 1013.4 - 0.0 - - - - - - -
19/04:30pm 26.7 ESE 4 5 1013.3 - 0.0 - - - - - - -
19/04:00pm 26.0 S 6 7 1013.4 - 0.0 - - - - - - -
19/03:30pm 25.9 S 4 6 1013.5 - 0.0 - - - - - - -
19/03:00pm 25.4 SSW 5 6 1013.5 - 0.0 - - - - - - -
19/02:30pm 25.2 SSW 4 6 1013.7 - 0.0 - - - - - - -
19/02:00pm 24.9 SW 7 8 1014.1 - 0.0 - - - - - - -
19/01:30pm 24.6 WSW 9 10 1014.5 - 0.0 - - - - - - -
19/01:00pm 24.5 SW 11 12 1014.8 - 0.0 - - - - - - -
19/12:30pm 25.0 SSW 5 7 1015.0 - 0.0 - - - - - - -
19/12:00pm 27.2 E 9 11 1015.2 - 0.0 - - - - - - -
19/11:30am 27.3 ENE 10 13 1015.5 - 0.0 - - - - - - -
19/11:00am 27.5 ENE 9 13 1016.0 - 0.0 - - - - - - -
19/10:30am 26.7 NE 12 14 1016.2 - 0.0 - - - - - - -
19/10:00am 26.8 E 9 14 1016.3 - 0.0 - - - - - - -
19/09:30am 27.0 ENE 13 16 1016.3 - 0.0 - - - - - - -
19/09:00am 26.5 ENE 9 11 1016.0 - 12.0 - - - - - - -
19/08:30am 27.0 ENE 8 11 1015.9 - 12.0 - - - - - - -
19/08:00am 26.7 ENE 11 14 1015.7 - 12.0 - - - - - - -
19/07:30am 26.2 ENE 10 14 1015.5 - 12.0 - - - - - - -
19/07:00am 26.1 NE 11 13 1015.3 - 12.0 - - - - - - -
19/06:30am 26.1 NE 13 15 1014.8 - 12.0 - - - - - - -
19/06:00am 24.4 NNE 2 4 1014.6 - 12.0 - - - - - - -
19/05:30am 23.5 WSW 5 7 1014.6 - 12.0 - - - - - - -
19/05:00am 23.3 WSW 6 8 1014.5 - 12.0 - - - - - - -
19/04:30am 23.3 WSW 7 9 1014.4 - 12.0 - - - - - - -
19/04:00am 23.4 WSW 8 9 1014.2 - 12.0 - - - - - - -
19/03:30am 23.9 WSW 5 8 1014.2 - 12.0 - - - - - - -
19/03:00am 26.0 NE 10 11 1014.0 - 12.0 - - - - - - -
19/02:30am 26.1 ENE 9 13 1014.1 - 12.0 - - - - - - -
19/02:00am 26.1 ENE 8 11 1014.4 - 12.0 - - - - - - -
19/01:30am 26.1 E 8 11 1014.8 - 12.0 - - - - - - -
19/01:00am 26.2 ENE 8 11 1015.1 - 12.0 - - - - - - -
19/12:30am 26.2 NE 10 11 1015.4 - 12.0 - - - - - - -
19/12:00am 26.3 NE 10 12 1015.5 - 12.0 - - - - - - -
 
Date/Time
EST
Temp

°C
Wind Pressure Rain
since 9am
mm
Weather Cloud Vis
km
Sea
Height
m
Swell
Dir
 
Speed
knots
Gust
knots
hPa Trend Height
m
Period
s
Dir
18/11:30pm 26.3 ENE 9 12 1015.8 - 12.0 - - - - - - -
18/11:00pm 26.4 ENE 9 12 1015.9 - 12.0 - - - - - - -
18/10:30pm 26.3 ENE 8 9 1016.1 - 12.0 - - - - - - -
18/10:00pm 26.4 NE 9 11 1016.1 - 12.0 - - - - - - -
18/09:30pm 26.4 ENE 8 10 1016.2 - 12.0 - - - - - - -
18/09:00pm 26.4 E 8 10 1016.1 - 12.0 - - - - - - -
18/08:30pm 26.5 ENE 9 11 1015.8 - 12.0 - - - - - - -
18/08:00pm 26.5 NE 11 13 1015.4 - 12.0 - - - - - - -
18/07:30pm 26.4 ENE 9 11 1015.1 - 12.0 - - - - - - -
18/07:00pm 26.3 E 8 10 1014.9 - 12.0 - - - - - - -
18/06:30pm 26.4 ENE 9 12 1014.6 - 12.0 - - - - - - -
18/06:00pm 26.4 E 8 11 1014.1 - 12.0 - - - - - - -
18/05:30pm 26.6 E 10 12 1013.8 - 12.0 - - - - - - -
18/05:00pm 26.5 E 10 13 1013.7 - 12.0 - - - - - - -
18/04:30pm 26.1 NNE 6 7 1013.6 - 12.0 - - - - - - -
18/04:00pm 25.7 N 7 10 1013.4 - 12.0 - - - - - - -
18/03:30pm 24.7 NW 11 15 1013.4 - 12.0 - - - - - - -
18/03:00pm 25.0 NNW 10 14 1013.1 - 12.0 - - - - - - -
18/02:30pm 24.1 NNE 10 14 1013.5 - 12.0 - - - - - - -
18/02:00pm 25.1 NW 6 9 1013.6 - 11.8 - - - - - - -
18/01:30pm 24.6 N 8 11 1013.9 - 11.8 - - - - - - -
18/01:00pm 23.3 ESE 11 17 1014.1 - 8.6 - - - - - - -
18/12:30pm 27.5 E 6 7 1014.3 - 0.2 - - - - - - -
18/12:00pm 28.4 ESE 6 9 1014.5 - 0.2 - - - - - - -
18/11:30am 27.9 E 7 11 1015.0 - 0.2 - - - - - - -
18/11:00am 27.8 ESE 8 11 1015.3 - 0.2 - - - - - - -
18/10:30am 27.4 ESE 2 4 1015.6 - 0.2 - - - - - - -
18/10:00am 27.5 SE 2 5 1015.8 - 0.0 - - - - - - -
18/09:30am 25.5 NE 10 12 1015.9 - 0.0 - - - - - - -
18/09:00am 25.0 SE 5 12 1015.7 - 0.6 - - - - - - -
18/08:30am 24.1 SSW 4 6 1015.6 - 0.6 - - - - - - -
18/08:00am 23.5 WSW 9 11 1015.4 - 0.0 - - - - - - -
18/07:30am 23.6 WSW 10 11 1015.2 - 0.0 - - - - - - -
18/07:00am 25.8 ESE 5 7 1015.0 - 0.0 - - - - - - -
18/06:30am 25.8 SE 6 8 1014.6 - 0.0 - - - - - - -
18/06:00am 25.8 ESE 5 7 1014.2 - 0.0 - - - - - - -
18/05:30am 25.9 ESE 5 9 1014.1 - 0.0 - - - - - - -
18/05:00am 25.9 ESE 6 9 1013.9 - 0.0 - - - - - - -
18/04:30am 25.8 ESE 6 10 1013.8 - 0.0 - - - - - - -
18/04:00am 25.8 ESE 6 9 1013.7 - 0.0 - - - - - - -
18/03:30am 25.9 ESE 5 9 1013.8 - 0.0 - - - - - - -
18/03:00am 25.9 SE 6 9 1013.7 - 0.0 - - - - - - -
18/02:30am 25.9 E 5 10 1013.9 - 0.0 - - - - - - -
18/02:00am 26.0 ESE 8 11 1014.1 - 0.0 - - - - - - -
18/01:30am 26.1 E 7 11 1014.4 - 0.0 - - - - - - -
18/01:00am 26.2 SE 8 12 1014.8 - 0.0 - - - - - - -
18/12:30am 26.2 ESE 7 10 1015.3 - 0.0 - - - - - - -
18/12:00am 26.2 ESE 8 12 1015.7 - 0.0 - - - - - - -
 
Date/Time
EST
Temp

°C
Wind Pressure Rain
since 9am
mm
Weather Cloud Vis
km
Sea
Height
m
Swell
Dir
 
Speed
knots
Gust
knots
hPa Trend Height
m
Period
s
Dir
17/11:30pm 26.3 ESE 9 12 1016.0 - 0.0 - - - - - - -
17/11:00pm 26.4 ESE 11 13 1016.1 - 0.0 - - - - - - -
17/10:30pm 26.3 ESE 8 12 1016.2 - 0.0 - - - - - - -
17/10:00pm 26.3 ESE 8 12 1016.2 - 0.0 - - - - - - -
17/09:30pm 26.3 ESE 8 13 1016.2 - 0.0 - - - - - - -
17/09:00pm 26.4 ESE 9 13 1016.0 - 0.0 - - - - - - -
17/08:30pm 26.4 ESE 9 14 1015.8 - 0.0 - - - - - - -
17/08:00pm 26.4 ESE 9 12 1015.5 - 0.0 - - - - - - -
17/07:30pm 26.4 ESE 10 12 1014.9 - 0.0 - - - - - - -
17/07:00pm 26.3 ESE 9 12 1014.7 - 0.0 - - - - - - -
17/06:30pm 26.3 ESE 8 13 1014.2 - 0.0 - - - - - - -

Other Formats:

Comma delimited format used in spreadsheet applications
http://www.bom.gov.au/fwo/IDQ60701/IDQ60701.94295.axf

JavaScript Object Notation format (JSON) in row-major order
http://www.bom.gov.au/fwo/IDQ60701/IDQ60701.94295.json